createdAt,value
2023-04-06T00:01:01.985Z,43.35
2023-04-06T00:03:30.711Z,49.53
2023-04-06T00:05:59.266Z,46.20
2023-04-06T00:08:29.865Z,44.13
2023-04-06T00:10:58.414Z,43.58
2023-04-06T00:13:26.909Z,39.67
2023-04-06T00:15:55.421Z,40.67
2023-04-06T00:18:24.774Z,35.17
2023-04-06T00:20:53.229Z,39.67
2023-04-06T00:23:21.791Z,40.05
2023-04-06T00:25:51.621Z,37.50
2023-04-06T00:28:26.041Z,38.05
2023-04-06T00:30:56.341Z,35.60
2023-04-06T00:33:25.783Z,36.47
2023-04-06T00:35:54.303Z,37.17
2023-04-06T00:38:24.265Z,36.47
2023-04-06T00:40:54.133Z,36.13
2023-04-06T00:43:23.057Z,35.72
2023-04-06T00:45:51.526Z,32.55
2023-04-06T00:48:19.964Z,31.35
2023-04-06T00:50:48.464Z,33.45
2023-04-06T00:53:17.237Z,33.45
2023-04-06T00:55:45.704Z,32.92
2023-04-06T00:58:15.916Z,32.35
2023-04-06T01:00:53.255Z,36.83
2023-04-06T01:03:24.756Z,34.78
2023-04-06T01:05:59.121Z,35.60
2023-04-06T01:08:32.973Z,34.27
2023-04-06T01:11:14.509Z,31.92
2023-04-06T01:13:44.859Z,31.02
2023-04-06T01:16:31.784Z,29.50
2023-04-06T01:19:14.126Z,29.58
2023-04-06T01:21:54.311Z,32.25
2023-04-06T01:24:33.552Z,36.47
2023-04-06T01:27:08.524Z,31.75
2023-04-06T01:29:52.107Z,30.35
2023-04-06T01:32:36.664Z,33.53
2023-04-06T01:35:05.815Z,33.78
2023-04-06T01:37:38.081Z,31.65
2023-04-06T01:40:12.590Z,30.92
2023-04-06T01:42:49.165Z,36.17
2023-04-06T01:45:25.133Z,33.63
2023-04-06T01:47:56.423Z,32.97
2023-04-06T01:50:27.743Z,33.78
2023-04-06T01:52:56.575Z,38.85
2023-04-06T01:55:28.107Z,31.58
2023-04-06T01:58:17.145Z,33.25
2023-04-06T02:00:45.881Z,33.85
2023-04-06T02:03:15.708Z,34.38
2023-04-06T02:08:31.453Z,36.17
2023-04-06T02:11:01.469Z,35.30
2023-04-06T02:13:36.146Z,35.03
2023-04-06T02:16:04.901Z,36.67
2023-04-06T02:18:33.570Z,36.05
2023-04-06T02:21:02.425Z,34.85
2023-04-06T02:23:31.023Z,35.42
2023-04-06T02:26:01.385Z,40.45
2023-04-06T02:30:58.474Z,36.22
2023-04-06T02:33:29.287Z,38.90
2023-04-06T02:35:57.785Z,40.10
2023-04-06T02:38:26.334Z,38.85
2023-04-06T02:40:54.835Z,40.85
2023-04-06T02:43:27.491Z,37.65
2023-04-06T02:46:04.300Z,38.58
2023-04-06T02:48:37.278Z,35.20
2023-04-06T02:51:07.008Z,39.22
2023-04-06T02:53:35.973Z,41.13
2023-04-06T02:56:04.796Z,39.50
2023-04-06T02:58:45.343Z,42.22
2023-04-06T03:01:13.968Z,36.88
2023-04-06T03:03:43.962Z,35.95
2023-04-06T03:06:19.561Z,38.92
2023-04-06T03:08:49.303Z,40.05
2023-04-06T03:11:17.766Z,40.83
2023-04-06T03:13:48.109Z,41.40
2023-04-06T03:16:16.657Z,43.88
2023-04-06T03:18:46.113Z,42.95
2023-04-06T03:21:17.208Z,38.22
2023-04-06T03:23:51.865Z,42.55
2023-04-06T03:26:20.497Z,39.78
2023-04-06T03:28:50.297Z,40.10
2023-04-06T03:31:19.023Z,42.80
2023-04-06T03:34:01.145Z,37.10
2023-04-06T03:36:36.175Z,39.58
2023-04-06T03:39:06.851Z,39.72
2023-04-06T03:41:38.649Z,45.63
2023-04-06T03:44:29.858Z,40.60
2023-04-06T03:46:58.335Z,44.67
2023-04-06T03:49:27.493Z,38.45
2023-04-06T03:51:56.045Z,39.58
2023-04-06T03:54:25.175Z,39.88
2023-04-06T03:56:53.879Z,41.83
2023-04-06T03:59:22.360Z,46.13
2023-04-06T04:01:52.394Z,39.30
2023-04-06T04:04:20.854Z,40.55
2023-04-06T04:06:49.248Z,42.97
2023-04-06T04:09:17.701Z,43.05
2023-04-06T04:11:46.119Z,40.97
2023-04-06T04:14:14.543Z,41.97
2023-04-06T04:16:43.110Z,43.25
2023-04-06T04:19:13.105Z,41.13
2023-04-06T04:21:46.558Z,41.15
2023-04-06T04:24:18.742Z,41.83
2023-04-06T04:26:47.383Z,44.17
2023-04-06T04:29:16.501Z,46.22
2023-04-06T04:31:45.250Z,43.72
2023-04-06T04:34:21.556Z,48.38
2023-04-06T04:36:49.990Z,43.03
2023-04-06T04:39:25.790Z,44.05
2023-04-06T04:42:02.369Z,48.40
2023-04-06T04:47:01.755Z,50.42
2023-04-06T04:49:42.524Z,53.15
2023-04-06T04:52:11.912Z,52.35
2023-04-06T04:55:03.785Z,56.95
2023-04-06T04:57:32.968Z,53.20
2023-04-06T05:00:02.644Z,59.10
2023-04-06T05:02:31.789Z,55.03
2023-04-06T05:05:23.946Z,55.67
2023-04-06T05:07:53.178Z,56.53
2023-04-06T05:10:45.353Z,55.50
2023-04-06T05:13:14.136Z,55.85
2023-04-06T05:15:43.162Z,53.97
2023-04-06T05:18:22.161Z,58.22
2023-04-06T05:20:52.712Z,55.70
2023-04-06T05:23:26.065Z,57.22
2023-04-06T05:25:54.877Z,61.88
2023-04-06T05:28:24.986Z,63.45
2023-04-06T05:30:54.705Z,65.45
2023-04-06T05:33:23.530Z,63.45
2023-04-06T05:36:15.141Z,70.43
2023-04-06T05:38:46.853Z,61.10
2023-04-06T05:41:36.735Z,65.93
2023-04-06T05:44:05.369Z,63.70
2023-04-06T05:46:34.860Z,68.15
2023-04-06T05:49:06.229Z,70.93
2023-04-06T05:51:38.068Z,67.68
2023-04-06T05:54:06.745Z,61.25
2023-04-06T05:56:35.736Z,65.63
2023-04-06T05:59:05.049Z,67.90
2023-04-06T06:01:34.958Z,66.75
2023-04-06T06:04:03.928Z,59.45
2023-04-06T06:06:34.846Z,68.28
2023-04-06T06:09:22.800Z,63.63
2023-04-06T06:12:02.040Z,72.18
2023-04-06T06:17:01.346Z,64.07
2023-04-06T06:19:30.586Z,71.25
2023-04-06T06:22:03.981Z,65.63
2023-04-06T06:24:34.892Z,63.72
2023-04-06T06:27:04.873Z,60.17
2023-04-06T06:29:36.372Z,60.25
2023-04-06T06:32:05.158Z,61.15
2023-04-06T06:34:34.218Z,65.40
2023-04-06T06:37:05.900Z,60.67
2023-04-06T06:39:35.819Z,59.83
2023-04-06T06:42:04.688Z,64.00
2023-04-06T06:44:56.451Z,60.00
2023-04-06T06:47:26.538Z,59.97
2023-04-06T06:49:55.243Z,61.58
2023-04-06T06:52:25.005Z,66.78
2023-04-06T06:54:57.557Z,62.57
2023-04-06T06:57:26.353Z,62.70
2023-04-06T06:59:55.100Z,61.28
2023-04-06T07:02:24.501Z,64.43
2023-04-06T07:04:53.207Z,58.97
2023-04-06T07:07:21.981Z,60.70
2023-04-06T07:09:50.501Z,61.22
2023-04-06T07:12:20.351Z,59.33
2023-04-06T07:14:48.847Z,52.20
2023-04-06T07:17:17.345Z,49.13
2023-04-06T07:19:46.130Z,44.67
2023-04-06T07:22:14.949Z,43.83
2023-04-06T07:24:43.410Z,44.85
2023-04-06T07:27:11.864Z,41.63
2023-04-06T07:29:41.966Z,43.85
2023-04-06T07:32:10.575Z,34.88
2023-04-06T07:34:39.636Z,35.13
2023-04-06T07:37:08.878Z,37.63
2023-04-06T07:39:37.483Z,35.00
2023-04-06T07:42:06.682Z,36.40
2023-04-06T07:44:35.257Z,36.15
2023-04-06T07:47:05.256Z,34.80
2023-04-06T07:49:34.365Z,37.25
2023-04-06T07:52:04.127Z,40.15
2023-04-06T07:54:33.031Z,35.67
2023-04-06T07:57:01.477Z,35.30
2023-04-06T07:59:30.145Z,37.88
2023-04-06T08:01:58.653Z,37.90
2023-04-06T08:04:28.550Z,36.00
2023-04-06T08:06:57.080Z,35.83
2023-04-06T08:09:25.736Z,39.97
2023-04-06T08:11:54.296Z,37.80
2023-04-06T08:14:22.742Z,36.33
2023-04-06T08:16:51.434Z,39.97
2023-04-06T08:19:19.966Z,35.80
2023-04-06T08:21:49.801Z,37.05
2023-04-06T08:24:18.241Z,30.95
2023-04-06T08:26:46.713Z,40.13
2023-04-06T08:29:15.120Z,35.70
2023-04-06T08:31:43.707Z,27.92
2023-04-06T08:34:14.109Z,29.83
2023-04-06T08:36:43.641Z,32.20
2023-04-06T08:39:13.553Z,30.58
2023-04-06T08:41:44.952Z,26.95
2023-04-06T08:44:14.186Z,23.75
2023-04-06T08:46:42.847Z,21.55
2023-04-06T08:49:11.584Z,21.48
2023-04-06T08:51:40.497Z,20.40
2023-04-06T08:54:09.195Z,20.60
2023-04-06T08:56:41.345Z,15.52
2023-04-06T08:59:11.721Z,21.25
2023-04-06T09:01:43.345Z,13.85
2023-04-06T09:04:13.903Z,18.65
2023-04-06T09:06:42.924Z,16.27
2023-04-06T09:09:11.506Z,18.92
2023-04-06T09:11:52.896Z,16.63
2023-04-06T09:14:37.453Z,19.13
2023-04-06T09:17:07.339Z,17.60
2023-04-06T09:19:35.815Z,17.50
2023-04-06T09:22:08.011Z,17.80
2023-04-06T09:24:44.607Z,17.65
2023-04-06T09:27:15.188Z,21.98
2023-04-06T09:29:44.023Z,19.83
2023-04-06T09:32:17.564Z,20.20
2023-04-06T09:34:50.877Z,23.35
2023-04-06T09:37:21.516Z,21.48
2023-04-06T09:39:52.512Z,23.42
2023-04-06T09:42:27.768Z,20.88
2023-04-06T09:44:56.805Z,23.60
2023-04-06T09:47:29.229Z,24.05
2023-04-06T09:50:00.238Z,24.08
2023-04-06T09:52:34.742Z,22.88
2023-04-06T09:55:08.995Z,22.88
2023-04-06T09:57:57.923Z,22.67
2023-04-06T10:00:28.103Z,24.23
2023-04-06T10:03:07.084Z,23.75
2023-04-06T10:05:48.069Z,25.27
2023-04-06T10:08:17.401Z,21.55
2023-04-06T10:10:45.919Z,22.65
2023-04-06T10:13:15.751Z,21.30
2023-04-06T10:15:45.373Z,26.10
2023-04-06T10:18:14.399Z,21.17
2023-04-06T10:20:50.604Z,24.13
2023-04-06T10:23:29.116Z,23.40
2023-04-06T10:25:59.089Z,23.27
2023-04-06T10:28:35.240Z,20.80
2023-04-06T10:31:07.075Z,21.23
2023-04-06T10:33:36.507Z,20.80
2023-04-06T10:36:13.496Z,23.67
2023-04-06T10:38:43.768Z,20.70
2023-04-06T10:41:14.830Z,22.50
2023-04-06T10:43:45.418Z,20.55
2023-04-06T10:46:15.504Z,20.30
2023-04-06T10:48:46.478Z,20.30
2023-04-06T10:51:17.165Z,20.80
2023-04-06T10:56:21.328Z,24.80
2023-04-06T10:58:53.687Z,23.58
2023-04-06T11:01:24.299Z,22.48
2023-04-06T11:03:55.052Z,24.33
2023-04-06T11:06:25.655Z,22.38
2023-04-06T11:08:55.646Z,21.55
2023-04-06T11:11:27.364Z,20.85
2023-04-06T11:13:59.435Z,20.20
2023-04-06T11:16:31.373Z,21.88
2023-04-06T11:19:01.950Z,24.23
2023-04-06T11:21:40.146Z,22.92
2023-04-06T11:24:14.215Z,20.40
2023-04-06T11:26:45.845Z,21.17
2023-04-06T11:29:17.980Z,23.00
2023-04-06T11:31:49.968Z,25.67
2023-04-06T11:34:21.034Z,25.52
2023-04-06T11:36:51.704Z,23.48
2023-04-06T11:41:55.609Z,26.13
2023-04-06T11:44:36.135Z,27.50
2023-04-06T11:47:05.590Z,26.67
2023-04-06T11:49:35.926Z,24.83
2023-04-06T11:52:05.033Z,24.92
2023-04-06T11:54:35.392Z,23.77
2023-04-06T11:57:05.052Z,29.92
2023-04-06T11:59:35.344Z,24.97
2023-04-06T12:02:05.052Z,24.20
2023-04-06T12:04:34.070Z,24.33
2023-04-06T12:07:02.545Z,28.60
2023-04-06T12:09:31.178Z,26.63
2023-04-06T12:11:59.941Z,25.25
2023-04-06T12:14:28.654Z,26.35
2023-04-06T12:16:58.667Z,25.08
2023-04-06T12:19:27.917Z,23.73
2023-04-06T12:21:57.778Z,22.77
2023-04-06T12:24:26.266Z,23.50
2023-04-06T12:27:08.720Z,27.35
2023-04-06T12:29:38.376Z,24.75
2023-04-06T12:32:08.208Z,24.25
2023-04-06T12:34:36.729Z,20.70
2023-04-06T12:37:05.466Z,19.60
2023-04-06T12:39:34.153Z,18.65
2023-04-06T12:42:03.651Z,19.60
2023-04-06T12:44:32.147Z,17.55
2023-04-06T12:47:00.607Z,17.30
2023-04-06T12:49:31.979Z,18.65
2023-04-06T12:52:00.661Z,18.05
2023-04-06T12:54:30.000Z,19.65
2023-04-06T12:56:58.740Z,18.67
2023-04-06T12:59:27.539Z,20.45
2023-04-06T13:01:56.112Z,17.70
2023-04-06T13:04:25.417Z,19.75
2023-04-06T13:06:55.373Z,19.38
2023-04-06T13:09:23.791Z,17.38
2023-04-06T13:11:52.566Z,18.05
2023-04-06T13:14:21.925Z,20.70
2023-04-06T13:16:50.823Z,19.38
2023-04-06T13:19:19.407Z,18.60
2023-04-06T13:21:47.890Z,17.75
2023-04-06T13:24:18.066Z,19.17
2023-04-06T13:26:46.595Z,19.40
2023-04-06T13:29:15.036Z,20.35
2023-04-06T13:31:43.578Z,21.75
2023-04-06T13:34:12.285Z,20.98
2023-04-06T13:36:42.822Z,20.83
2023-04-06T13:39:11.452Z,21.67
2023-04-06T13:41:41.890Z,22.10
2023-04-06T13:44:10.727Z,22.42
2023-04-06T13:46:39.139Z,19.13
2023-04-06T13:49:07.622Z,20.98
2023-04-06T13:51:36.360Z,20.65
2023-04-06T13:54:04.968Z,21.35
2023-04-06T13:56:33.455Z,20.85
2023-04-06T13:59:04.761Z,21.20
2023-04-06T14:01:33.463Z,20.90
2023-04-06T14:04:02.523Z,21.10
2023-04-06T14:06:32.196Z,20.15
2023-04-06T14:09:01.030Z,21.42
2023-04-06T14:11:29.390Z,21.45
2023-04-06T14:13:58.746Z,19.70
2023-04-06T14:16:28.642Z,22.38
2023-04-06T14:18:58.731Z,21.95
2023-04-06T14:21:27.410Z,20.45
2023-04-06T14:23:58.055Z,21.08
2023-04-06T14:26:28.642Z,17.65
2023-04-06T14:28:57.070Z,17.88
2023-04-06T14:31:25.622Z,16.50
2023-04-06T14:33:55.567Z,17.05
2023-04-06T14:36:24.086Z,15.93
2023-04-06T14:38:53.366Z,17.05
2023-04-06T14:41:25.018Z,17.25
2023-04-06T14:43:54.419Z,17.35
2023-04-06T14:46:22.881Z,15.70
2023-04-06T14:48:51.853Z,14.75
2023-04-06T14:51:21.579Z,14.25
2023-04-06T14:53:50.052Z,13.35
2023-04-06T14:56:23.294Z,14.05
2023-04-06T14:58:52.828Z,14.50
2023-04-06T15:01:21.885Z,15.00
2023-04-06T15:03:50.636Z,17.33
2023-04-06T15:06:21.882Z,15.88
2023-04-06T15:08:51.358Z,17.45
2023-04-06T15:11:19.700Z,18.05
2023-04-06T15:13:48.336Z,17.05
2023-04-06T15:16:16.892Z,17.15
2023-04-06T15:18:45.406Z,19.55
2023-04-06T15:21:13.738Z,18.08
2023-04-06T15:23:43.433Z,17.42
2023-04-06T15:26:11.974Z,19.87
2023-04-06T15:28:40.450Z,17.90
2023-04-06T15:31:28.217Z,18.23
2023-04-06T15:34:01.991Z,18.15
2023-04-06T15:36:31.782Z,20.88
2023-04-06T15:39:02.257Z,20.50
2023-04-06T15:41:30.727Z,20.13
2023-04-06T15:43:59.218Z,20.60
2023-04-06T15:46:28.948Z,18.77
2023-04-06T15:48:58.091Z,19.15
2023-04-06T15:51:26.501Z,19.70
2023-04-06T15:53:54.967Z,18.73
2023-04-06T15:56:24.596Z,19.02
2023-04-06T15:58:52.924Z,22.85
2023-04-06T16:01:21.416Z,23.33
2023-04-06T16:03:50.018Z,26.90
2023-04-06T16:06:18.653Z,27.83
2023-04-06T16:08:47.135Z,30.52
2023-04-06T16:11:15.595Z,30.80
2023-04-06T16:13:50.067Z,30.60
2023-04-06T16:16:23.541Z,28.27
2023-04-06T16:18:51.996Z,31.50
2023-04-06T16:21:20.665Z,31.23
2023-04-06T16:23:49.296Z,35.47
2023-04-06T16:26:19.143Z,36.60
2023-04-06T16:28:49.622Z,32.92
2023-04-06T16:33:48.820Z,32.38
2023-04-06T16:36:23.453Z,32.60
2023-04-06T16:38:52.148Z,30.95
2023-04-06T16:41:21.065Z,43.15
2023-04-06T16:43:51.487Z,35.22
2023-04-06T16:46:20.379Z,34.38
2023-04-06T16:48:49.130Z,35.28
2023-04-06T16:51:18.832Z,37.50
2023-04-06T16:53:48.266Z,36.80
2023-04-06T16:56:16.915Z,33.40
2023-04-06T16:58:46.333Z,34.38
2023-04-06T17:01:24.240Z,34.33
2023-04-06T17:03:52.757Z,31.00
2023-04-06T17:06:21.687Z,29.42
2023-04-06T17:08:51.122Z,27.95
2023-04-06T17:11:25.502Z,27.92
2023-04-06T17:13:59.867Z,30.80
2023-04-06T17:16:34.402Z,28.25
2023-04-06T17:19:12.078Z,28.08
2023-04-06T17:21:42.113Z,27.60
2023-04-06T17:24:10.840Z,30.85
2023-04-06T17:26:39.202Z,29.27
2023-04-06T17:29:07.569Z,25.70
2023-04-06T17:31:37.497Z,25.73
2023-04-06T17:34:06.198Z,24.50
2023-04-06T17:36:34.520Z,18.60
2023-04-06T17:39:03.290Z,15.73
2023-04-06T17:41:33.768Z,15.50
2023-04-06T17:44:02.368Z,15.13
2023-04-06T17:46:30.935Z,13.18
2023-04-06T17:49:00.911Z,15.40
2023-04-06T17:51:29.260Z,15.82
2023-04-06T17:53:57.863Z,14.23
2023-04-06T17:56:26.566Z,14.80
2023-04-06T17:58:58.009Z,20.13
2023-04-06T18:01:26.785Z,17.20
2023-04-06T18:03:55.429Z,16.65
2023-04-06T18:06:25.908Z,17.33
2023-04-06T18:08:55.818Z,17.33
2023-04-06T18:11:25.720Z,15.20
2023-04-06T18:13:54.177Z,16.60
2023-04-06T18:16:22.678Z,18.38
2023-04-06T18:18:51.200Z,15.90
2023-04-06T18:21:19.531Z,13.63
2023-04-06T18:23:49.456Z,11.20
2023-04-06T18:26:19.806Z,13.93
2023-04-06T18:28:48.781Z,14.07
2023-04-06T18:31:18.622Z,16.02
2023-04-06T18:33:47.443Z,14.50
2023-04-06T18:36:15.985Z,17.98
2023-04-06T18:38:47.891Z,19.63
2023-04-06T18:41:18.217Z,16.75
2023-04-06T18:43:46.610Z,15.68
2023-04-06T18:46:16.525Z,13.15
2023-04-06T18:48:44.955Z,13.85
2023-04-06T18:51:13.503Z,12.85
2023-04-06T18:53:41.864Z,15.43
2023-04-06T18:56:19.332Z,14.90
2023-04-06T18:58:49.205Z,17.38
2023-04-06T19:01:25.694Z,12.25
2023-04-06T19:03:55.833Z,13.00
2023-04-06T19:06:25.153Z,12.13
2023-04-06T19:08:53.640Z,12.93
2023-04-06T19:11:25.167Z,10.15
2023-04-06T19:13:55.096Z,12.18
2023-04-06T19:16:23.794Z,13.13
2023-04-06T19:18:52.162Z,10.27
2023-04-06T19:21:22.628Z,14.13
2023-04-06T19:23:54.421Z,14.45
2023-04-06T19:26:27.813Z,13.70
2023-04-06T19:28:56.465Z,13.82
2023-04-06T19:31:26.897Z,15.40
2023-04-06T19:33:55.446Z,13.75
2023-04-06T19:36:23.929Z,11.38
2023-04-06T19:38:52.601Z,14.73
2023-04-06T19:41:21.500Z,9.98
2023-04-06T19:43:51.339Z,15.73
2023-04-06T19:46:19.978Z,18.17
2023-04-06T19:48:48.389Z,9.55
2023-04-06T19:51:17.005Z,17.35
2023-04-06T19:53:45.315Z,14.48
2023-04-06T19:56:13.819Z,12.25
2023-04-06T19:58:42.264Z,10.18
2023-04-06T20:01:11.986Z,11.65
2023-04-06T20:03:40.980Z,12.35
2023-04-06T20:06:09.453Z,12.15
2023-04-06T20:08:37.880Z,12.50
2023-04-06T20:11:07.615Z,14.35
2023-04-06T20:13:36.241Z,13.10
2023-04-06T20:16:05.092Z,12.93
2023-04-06T20:18:34.957Z,11.50
2023-04-06T20:21:03.410Z,12.03
2023-04-06T20:23:34.870Z,13.52
2023-04-06T20:26:03.357Z,12.18
2023-04-06T20:28:32.730Z,10.75
2023-04-06T20:31:01.331Z,12.48
2023-04-06T20:33:30.230Z,11.95
2023-04-06T20:36:01.495Z,11.30
2023-04-06T20:38:33.813Z,13.40
2023-04-06T20:41:02.719Z,14.25
2023-04-06T20:43:31.870Z,13.50
2023-04-06T20:46:02.169Z,12.48
2023-04-06T20:48:33.697Z,14.32
2023-04-06T20:51:06.594Z,11.88
2023-04-06T20:53:35.196Z,11.27
2023-04-06T20:56:03.653Z,11.85
2023-04-06T20:58:32.167Z,14.80
2023-04-06T21:01:00.538Z,14.50
2023-04-06T21:03:29.162Z,15.15
2023-04-06T21:05:59.853Z,14.95
2023-04-06T21:10:58.136Z,12.68
2023-04-06T21:13:26.487Z,17.42
2023-04-06T21:15:56.183Z,13.30
2023-04-06T21:18:24.942Z,15.53
2023-04-06T21:20:53.431Z,16.50
2023-04-06T21:23:23.031Z,10.52
2023-04-06T21:25:55.355Z,20.00
2023-04-06T21:28:24.152Z,19.98
2023-04-06T21:30:52.611Z,19.10
2023-04-06T21:33:21.247Z,14.60
2023-04-06T21:35:50.062Z,16.17
2023-04-06T21:38:18.531Z,19.65
2023-04-06T21:40:47.157Z,14.32
2023-04-06T21:43:17.166Z,16.13
2023-04-06T21:45:50.961Z,15.95
2023-04-06T21:48:19.557Z,20.88
2023-04-06T21:50:47.875Z,15.32
2023-04-06T21:53:16.310Z,17.48
2023-04-06T21:55:45.732Z,17.25
2023-04-06T21:58:16.378Z,21.33
2023-04-06T22:03:13.121Z,13.52
2023-04-06T22:07:13.425Z,16.83
2023-04-06T22:10:50.473Z,16.52
2023-04-06T22:13:20.281Z,22.52
2023-04-06T22:15:48.713Z,13.83
2023-04-06T22:18:17.004Z,20.77
2023-04-06T22:20:45.697Z,25.55
2023-04-06T22:23:14.306Z,21.52
2023-04-06T22:25:42.696Z,21.58
2023-04-06T22:28:11.026Z,20.23
2023-04-06T22:30:40.739Z,19.27
2023-04-06T22:33:09.074Z,20.97
2023-04-06T22:35:37.442Z,19.02
2023-04-06T22:38:05.924Z,20.92
2023-04-06T22:40:34.379Z,20.95
2023-04-06T22:43:02.722Z,22.52
2023-04-06T22:45:31.002Z,26.63
2023-04-06T22:48:00.779Z,26.40
2023-04-06T22:50:29.113Z,24.67
2023-04-06T22:52:57.406Z,25.70
2023-04-06T22:55:26.130Z,25.95
2023-04-06T22:57:54.569Z,27.10
2023-04-06T23:00:23.122Z,21.10
2023-04-06T23:02:51.748Z,24.83
2023-04-06T23:05:21.374Z,28.05
2023-04-06T23:07:51.250Z,28.92
2023-04-06T23:10:20.372Z,25.88
2023-04-06T23:12:49.255Z,26.80
2023-04-06T23:15:17.856Z,23.60
2023-04-06T23:17:47.087Z,27.17
2023-04-06T23:20:15.910Z,25.35
2023-04-06T23:22:45.885Z,25.17
2023-04-06T23:25:14.569Z,25.33
2023-04-06T23:27:42.952Z,26.23
2023-04-06T23:30:11.971Z,22.48
2023-04-06T23:32:40.555Z,22.10
2023-04-06T23:35:10.328Z,21.02
2023-04-06T23:37:38.662Z,20.17
2023-04-06T23:40:11.076Z,26.35
2023-04-06T23:42:39.363Z,31.25
2023-04-06T23:45:09.500Z,20.90
2023-04-06T23:47:37.909Z,29.63
2023-04-06T23:50:07.706Z,23.63
2023-04-06T23:52:36.122Z,22.40
2023-04-06T23:55:05.300Z,23.17
2023-04-06T23:57:34.967Z,25.02
